sensor_id;sensor_type;location;lat;lon;timestamp;P1;durP1;ratioP1;P2;durP2;ratioP2
20828;SDS011;10575;50.124;8.582;2023-06-14T00:00:38;6.63;;;5.15;;
20828;SDS011;10575;50.124;8.582;2023-06-14T00:03:08;8.13;;;6.00;;
20828;SDS011;10575;50.124;8.582;2023-06-14T00:05:35;8.05;;;5.90;;
20828;SDS011;10575;50.124;8.582;2023-06-14T00:08:05;8.32;;;5.72;;
20828;SDS011;10575;50.124;8.582;2023-06-14T00:10:33;9.10;;;5.93;;
20828;SDS011;10575;50.124;8.582;2023-06-14T00:13:00;7.32;;;5.43;;
20828;SDS011;10575;50.124;8.582;2023-06-14T00:15:26;7.38;;;5.47;;
20828;SDS011;10575;50.124;8.582;2023-06-14T00:17:53;7.03;;;5.55;;
20828;SDS011;10575;50.124;8.582;2023-06-14T00:20:19;11.20;;;5.88;;
20828;SDS011;10575;50.124;8.582;2023-06-14T00:22:45;9.45;;;5.80;;
20828;SDS011;10575;50.124;8.582;2023-06-14T00:25:11;9.23;;;5.70;;
20828;SDS011;10575;50.124;8.582;2023-06-14T00:27:37;6.70;;;4.93;;
20828;SDS011;10575;50.124;8.582;2023-06-14T00:30:02;9.50;;;5.75;;
20828;SDS011;10575;50.124;8.582;2023-06-14T00:32:28;9.07;;;5.25;;
20828;SDS011;10575;50.124;8.582;2023-06-14T00:34:54;9.38;;;5.50;;
20828;SDS011;10575;50.124;8.582;2023-06-14T00:37:19;7.78;;;5.30;;
20828;SDS011;10575;50.124;8.582;2023-06-14T00:39:45;8.90;;;5.32;;
20828;SDS011;10575;50.124;8.582;2023-06-14T00:42:10;6.50;;;5.78;;
20828;SDS011;10575;50.124;8.582;2023-06-14T00:44:36;8.38;;;5.13;;
20828;SDS011;10575;50.124;8.582;2023-06-14T00:47:01;7.25;;;5.38;;
20828;SDS011;10575;50.124;8.582;2023-06-14T00:49:27;8.77;;;5.97;;
20828;SDS011;10575;50.124;8.582;2023-06-14T00:51:54;13.50;;;5.47;;
20828;SDS011;10575;50.124;8.582;2023-06-14T00:54:20;9.38;;;6.47;;
20828;SDS011;10575;50.124;8.582;2023-06-14T00:56:46;8.63;;;6.00;;
20828;SDS011;10575;50.124;8.582;2023-06-14T00:59:11;7.57;;;5.63;;
20828;SDS011;10575;50.124;8.582;2023-06-14T01:01:37;7.35;;;5.53;;
20828;SDS011;10575;50.124;8.582;2023-06-14T01:04:03;8.23;;;4.93;;
20828;SDS011;10575;50.124;8.582;2023-06-14T01:09:15;7.53;;;5.38;;
20828;SDS011;10575;50.124;8.582;2023-06-14T01:12:24;8.32;;;5.53;;
20828;SDS011;10575;50.124;8.582;2023-06-14T01:14:46;8.68;;;5.70;;
20828;SDS011;10575;50.124;8.582;2023-06-14T01:17:14;7.90;;;5.28;;
20828;SDS011;10575;50.124;8.582;2023-06-14T01:19:44;8.48;;;5.43;;
20828;SDS011;10575;50.124;8.582;2023-06-14T01:22:10;10.27;;;5.38;;
20828;SDS011;10575;50.124;8.582;2023-06-14T01:24:36;9.60;;;5.22;;
20828;SDS011;10575;50.124;8.582;2023-06-14T01:27:04;9.27;;;5.57;;
20828;SDS011;10575;50.124;8.582;2023-06-14T01:29:30;7.88;;;5.47;;
20828;SDS011;10575;50.124;8.582;2023-06-14T01:31:58;11.38;;;5.97;;
20828;SDS011;10575;50.124;8.582;2023-06-14T01:34:26;8.85;;;5.15;;
20828;SDS011;10575;50.124;8.582;2023-06-14T01:36:52;9.93;;;5.40;;
20828;SDS011;10575;50.124;8.582;2023-06-14T01:39:22;9.23;;;5.88;;
20828;SDS011;10575;50.124;8.582;2023-06-14T01:41:48;6.32;;;5.15;;
20828;SDS011;10575;50.124;8.582;2023-06-14T01:44:15;9.05;;;5.28;;
20828;SDS011;10575;50.124;8.582;2023-06-14T01:46:42;9.20;;;5.35;;
20828;SDS011;10575;50.124;8.582;2023-06-14T01:49:08;8.25;;;5.10;;
20828;SDS011;10575;50.124;8.582;2023-06-14T01:51:34;9.68;;;5.50;;
20828;SDS011;10575;50.124;8.582;2023-06-14T01:54:00;6.22;;;4.95;;
20828;SDS011;10575;50.124;8.582;2023-06-14T01:56:26;8.23;;;5.20;;
20828;SDS011;10575;50.124;8.582;2023-06-14T01:58:51;8.68;;;5.53;;
20828;SDS011;10575;50.124;8.582;2023-06-14T02:01:18;6.57;;;4.97;;
20828;SDS011;10575;50.124;8.582;2023-06-14T02:03:46;7.22;;;5.10;;
20828;SDS011;10575;50.124;8.582;2023-06-14T02:06:12;11.63;;;5.45;;
20828;SDS011;10575;50.124;8.582;2023-06-14T02:08:38;12.40;;;5.30;;
20828;SDS011;10575;50.124;8.582;2023-06-14T02:11:05;6.25;;;5.13;;
20828;SDS011;10575;50.124;8.582;2023-06-14T02:13:30;5.30;;;4.43;;
20828;SDS011;10575;50.124;8.582;2023-06-14T02:15:56;9.23;;;5.32;;
20828;SDS011;10575;50.124;8.582;2023-06-14T02:18:22;8.20;;;5.10;;
20828;SDS011;10575;50.124;8.582;2023-06-14T02:20:48;6.70;;;5.00;;
20828;SDS011;10575;50.124;8.582;2023-06-14T02:23:13;5.32;;;4.55;;
20828;SDS011;10575;50.124;8.582;2023-06-14T02:25:39;8.25;;;5.38;;
20828;SDS011;10575;50.124;8.582;2023-06-14T02:28:05;11.23;;;5.72;;
20828;SDS011;10575;50.124;8.582;2023-06-14T02:30:31;7.28;;;4.90;;
20828;SDS011;10575;50.124;8.582;2023-06-14T02:32:56;9.73;;;5.03;;
20828;SDS011;10575;50.124;8.582;2023-06-14T02:35:24;6.45;;;5.38;;
20828;SDS011;10575;50.124;8.582;2023-06-14T02:37:51;7.05;;;5.30;;
20828;SDS011;10575;50.124;8.582;2023-06-14T02:40:17;9.02;;;5.38;;
20828;SDS011;10575;50.124;8.582;2023-06-14T02:42:44;6.45;;;5.13;;
20828;SDS011;10575;50.124;8.582;2023-06-14T02:45:09;7.55;;;5.05;;
20828;SDS011;10575;50.124;8.582;2023-06-14T02:47:35;8.43;;;5.35;;
20828;SDS011;10575;50.124;8.582;2023-06-14T02:50:00;12.18;;;6.07;;
20828;SDS011;10575;50.124;8.582;2023-06-14T02:52:27;10.75;;;5.40;;
20828;SDS011;10575;50.124;8.582;2023-06-14T02:54:53;9.55;;;5.95;;
20828;SDS011;10575;50.124;8.582;2023-06-14T02:57:19;8.93;;;5.65;;
20828;SDS011;10575;50.124;8.582;2023-06-14T02:59:45;7.22;;;5.35;;
20828;SDS011;10575;50.124;8.582;2023-06-14T03:02:10;6.85;;;5.20;;
20828;SDS011;10575;50.124;8.582;2023-06-14T03:04:36;7.93;;;5.65;;
20828;SDS011;10575;50.124;8.582;2023-06-14T03:07:04;6.70;;;4.80;;
20828;SDS011;10575;50.124;8.582;2023-06-14T03:09:37;8.13;;;5.65;;
20828;SDS011;10575;50.124;8.582;2023-06-14T03:12:04;11.57;;;4.90;;
20828;SDS011;10575;50.124;8.582;2023-06-14T03:14:31;6.47;;;5.45;;
20828;SDS011;10575;50.124;8.582;2023-06-14T03:16:57;7.13;;;5.00;;
20828;SDS011;10575;50.124;8.582;2023-06-14T03:19:23;8.02;;;5.30;;
20828;SDS011;10575;50.124;8.582;2023-06-14T03:21:51;7.68;;;5.18;;
20828;SDS011;10575;50.124;8.582;2023-06-14T03:24:17;10.30;;;5.20;;
20828;SDS011;10575;50.124;8.582;2023-06-14T03:26:42;9.50;;;5.95;;
20828;SDS011;10575;50.124;8.582;2023-06-14T03:29:08;19.02;;;5.57;;
20828;SDS011;10575;50.124;8.582;2023-06-14T03:31:34;8.38;;;5.15;;
20828;SDS011;10575;50.124;8.582;2023-06-14T03:34:00;7.88;;;5.03;;
20828;SDS011;10575;50.124;8.582;2023-06-14T03:36:26;9.48;;;5.55;;
20828;SDS011;10575;50.124;8.582;2023-06-14T03:38:52;8.55;;;5.20;;
20828;SDS011;10575;50.124;8.582;2023-06-14T03:41:19;8.85;;;5.70;;
20828;SDS011;10575;50.124;8.582;2023-06-14T03:43:44;9.73;;;5.60;;
20828;SDS011;10575;50.124;8.582;2023-06-14T03:46:10;8.35;;;5.40;;
20828;SDS011;10575;50.124;8.582;2023-06-14T03:48:35;9.77;;;5.63;;
20828;SDS011;10575;50.124;8.582;2023-06-14T03:51:01;9.57;;;5.35;;
20828;SDS011;10575;50.124;8.582;2023-06-14T03:53:27;8.80;;;6.00;;
20828;SDS011;10575;50.124;8.582;2023-06-14T03:55:54;7.47;;;4.88;;
20828;SDS011;10575;50.124;8.582;2023-06-14T03:58:20;7.40;;;5.07;;
20828;SDS011;10575;50.124;8.582;2023-06-14T04:00:45;9.57;;;4.85;;
20828;SDS011;10575;50.124;8.582;2023-06-14T04:03:11;11.68;;;5.72;;
20828;SDS011;10575;50.124;8.582;2023-06-14T04:05:38;8.85;;;5.25;;
20828;SDS011;10575;50.124;8.582;2023-06-14T04:08:07;7.38;;;5.15;;
20828;SDS011;10575;50.124;8.582;2023-06-14T04:10:34;12.32;;;5.57;;
20828;SDS011;10575;50.124;8.582;2023-06-14T04:12:59;7.53;;;5.25;;
20828;SDS011;10575;50.124;8.582;2023-06-14T04:15:25;7.65;;;4.95;;
20828;SDS011;10575;50.124;8.582;2023-06-14T04:17:53;10.05;;;5.25;;
20828;SDS011;10575;50.124;8.582;2023-06-14T04:20:22;11.93;;;5.05;;
20828;SDS011;10575;50.124;8.582;2023-06-14T04:22:49;6.82;;;5.55;;
20828;SDS011;10575;50.124;8.582;2023-06-14T04:25:14;7.60;;;5.20;;
20828;SDS011;10575;50.124;8.582;2023-06-14T04:27:40;8.98;;;5.70;;
20828;SDS011;10575;50.124;8.582;2023-06-14T04:30:06;7.95;;;5.32;;
20828;SDS011;10575;50.124;8.582;2023-06-14T04:32:32;8.20;;;5.07;;
20828;SDS011;10575;50.124;8.582;2023-06-14T04:35:07;8.73;;;5.57;;
20828;SDS011;10575;50.124;8.582;2023-06-14T04:37:33;7.95;;;4.90;;
20828;SDS011;10575;50.124;8.582;2023-06-14T04:39:59;10.70;;;5.25;;
20828;SDS011;10575;50.124;8.582;2023-06-14T04:42:25;10.38;;;5.78;;
20828;SDS011;10575;50.124;8.582;2023-06-14T04:44:55;9.43;;;5.50;;
20828;SDS011;10575;50.124;8.582;2023-06-14T04:47:21;8.32;;;5.28;;
20828;SDS011;10575;50.124;8.582;2023-06-14T04:49:49;10.40;;;5.50;;
20828;SDS011;10575;50.124;8.582;2023-06-14T04:52:17;8.43;;;5.72;;
20828;SDS011;10575;50.124;8.582;2023-06-14T04:54:45;13.80;;;5.82;;
20828;SDS011;10575;50.124;8.582;2023-06-14T04:57:11;11.63;;;5.30;;
20828;SDS011;10575;50.124;8.582;2023-06-14T04:59:38;8.88;;;5.93;;
20828;SDS011;10575;50.124;8.582;2023-06-14T05:02:04;11.88;;;5.57;;
20828;SDS011;10575;50.124;8.582;2023-06-14T05:04:30;8.57;;;5.43;;
20828;SDS011;10575;50.124;8.582;2023-06-14T05:06:55;8.60;;;5.53;;
20828;SDS011;10575;50.124;8.582;2023-06-14T05:09:21;19.83;;;5.95;;
20828;SDS011;10575;50.124;8.582;2023-06-14T05:11:47;6.97;;;5.32;;
20828;SDS011;10575;50.124;8.582;2023-06-14T05:14:13;9.98;;;5.20;;
20828;SDS011;10575;50.124;8.582;2023-06-14T05:16:39;8.52;;;5.25;;
20828;SDS011;10575;50.124;8.582;2023-06-14T05:19:06;8.60;;;5.63;;
20828;SDS011;10575;50.124;8.582;2023-06-14T05:21:32;14.30;;;6.75;;
20828;SDS011;10575;50.124;8.582;2023-06-14T05:23:59;7.82;;;5.45;;
20828;SDS011;10575;50.124;8.582;2023-06-14T05:26:25;11.85;;;5.10;;
20828;SDS011;10575;50.124;8.582;2023-06-14T05:28:58;8.68;;;5.75;;
20828;SDS011;10575;50.124;8.582;2023-06-14T05:31:25;8.32;;;5.20;;
20828;SDS011;10575;50.124;8.582;2023-06-14T05:33:50;11.60;;;5.25;;
20828;SDS011;10575;50.124;8.582;2023-06-14T05:36:16;9.18;;;4.93;;
20828;SDS011;10575;50.124;8.582;2023-06-14T05:38:42;11.73;;;4.95;;
20828;SDS011;10575;50.124;8.582;2023-06-14T05:41:07;14.10;;;6.05;;
20828;SDS011;10575;50.124;8.582;2023-06-14T05:43:33;9.60;;;5.25;;
20828;SDS011;10575;50.124;8.582;2023-06-14T05:45:58;20.83;;;6.38;;
20828;SDS011;10575;50.124;8.582;2023-06-14T05:48:24;10.60;;;5.15;;
20828;SDS011;10575;50.124;8.582;2023-06-14T05:50:49;8.68;;;4.57;;
20828;SDS011;10575;50.124;8.582;2023-06-14T05:53:15;7.57;;;4.82;;
20828;SDS011;10575;50.124;8.582;2023-06-14T05:55:40;6.65;;;4.70;;
20828;SDS011;10575;50.124;8.582;2023-06-14T05:58:06;8.45;;;5.03;;
20828;SDS011;10575;50.124;8.582;2023-06-14T06:00:31;8.27;;;4.65;;
20828;SDS011;10575;50.124;8.582;2023-06-14T06:02:57;7.93;;;4.65;;
20828;SDS011;10575;50.124;8.582;2023-06-14T06:05:23;9.70;;;4.22;;
20828;SDS011;10575;50.124;8.582;2023-06-14T06:07:48;7.40;;;4.63;;
20828;SDS011;10575;50.124;8.582;2023-06-14T06:10:14;4.50;;;3.92;;
20828;SDS011;10575;50.124;8.582;2023-06-14T06:12:41;8.52;;;4.65;;
20828;SDS011;10575;50.124;8.582;2023-06-14T06:15:07;10.68;;;4.40;;
20828;SDS011;10575;50.124;8.582;2023-06-14T06:17:33;7.38;;;4.38;;
20828;SDS011;10575;50.124;8.582;2023-06-14T06:19:59;9.05;;;4.60;;
20828;SDS011;10575;50.124;8.582;2023-06-14T06:22:25;9.90;;;4.38;;
20828;SDS011;10575;50.124;8.582;2023-06-14T06:24:50;5.75;;;3.95;;
20828;SDS011;10575;50.124;8.582;2023-06-14T06:27:16;6.65;;;4.20;;
20828;SDS011;10575;50.124;8.582;2023-06-14T06:29:43;6.30;;;4.20;;
20828;SDS011;10575;50.124;8.582;2023-06-14T06:32:09;6.35;;;4.18;;
20828;SDS011;10575;50.124;8.582;2023-06-14T06:34:35;8.98;;;3.97;;
20828;SDS011;10575;50.124;8.582;2023-06-14T06:37:01;5.75;;;3.80;;
20828;SDS011;10575;50.124;8.582;2023-06-14T06:39:27;7.13;;;3.90;;
20828;SDS011;10575;50.124;8.582;2023-06-14T06:41:53;5.20;;;3.97;;
20828;SDS011;10575;50.124;8.582;2023-06-14T06:44:18;4.00;;;3.28;;
20828;SDS011;10575;50.124;8.582;2023-06-14T06:46:44;5.32;;;3.88;;
20828;SDS011;10575;50.124;8.582;2023-06-14T06:49:09;5.60;;;3.50;;
20828;SDS011;10575;50.124;8.582;2023-06-14T06:51:36;6.78;;;3.25;;
20828;SDS011;10575;50.124;8.582;2023-06-14T06:54:02;3.35;;;3.00;;
20828;SDS011;10575;50.124;8.582;2023-06-14T06:56:28;3.47;;;3.05;;
20828;SDS011;10575;50.124;8.582;2023-06-14T06:58:54;4.85;;;2.97;;
20828;SDS011;10575;50.124;8.582;2023-06-14T07:01:19;5.95;;;3.40;;
20828;SDS011;10575;50.124;8.582;2023-06-14T07:03:45;5.03;;;3.00;;
20828;SDS011;10575;50.124;8.582;2023-06-14T07:06:11;9.88;;;3.50;;
20828;SDS011;10575;50.124;8.582;2023-06-14T07:08:37;3.10;;;2.70;;
20828;SDS011;10575;50.124;8.582;2023-06-14T07:11:03;4.40;;;2.72;;
20828;SDS011;10575;50.124;8.582;2023-06-14T07:13:29;5.45;;;3.05;;
20828;SDS011;10575;50.124;8.582;2023-06-14T07:15:57;3.58;;;3.10;;
20828;SDS011;10575;50.124;8.582;2023-06-14T07:18:23;4.43;;;2.90;;
20828;SDS011;10575;50.124;8.582;2023-06-14T07:20:49;3.67;;;3.03;;
20828;SDS011;10575;50.124;8.582;2023-06-14T07:23:15;5.88;;;3.58;;
20828;SDS011;10575;50.124;8.582;2023-06-14T07:25:40;5.13;;;3.10;;
20828;SDS011;10575;50.124;8.582;2023-06-14T07:28:06;4.00;;;3.40;;
20828;SDS011;10575;50.124;8.582;2023-06-14T07:30:32;6.22;;;3.03;;
20828;SDS011;10575;50.124;8.582;2023-06-14T07:32:58;2.78;;;2.58;;
20828;SDS011;10575;50.124;8.582;2023-06-14T07:35:24;6.47;;;3.00;;
20828;SDS011;10575;50.124;8.582;2023-06-14T07:37:50;4.28;;;3.30;;
20828;SDS011;10575;50.124;8.582;2023-06-14T07:40:15;4.20;;;2.75;;
20828;SDS011;10575;50.124;8.582;2023-06-14T07:42:41;5.95;;;2.95;;
20828;SDS011;10575;50.124;8.582;2023-06-14T07:45:07;5.80;;;3.40;;
20828;SDS011;10575;50.124;8.582;2023-06-14T07:47:33;6.72;;;2.58;;
20828;SDS011;10575;50.124;8.582;2023-06-14T07:49:59;7.07;;;3.20;;
20828;SDS011;10575;50.124;8.582;2023-06-14T07:52:24;3.80;;;3.00;;
20828;SDS011;10575;50.124;8.582;2023-06-14T07:54:50;4.05;;;3.65;;
20828;SDS011;10575;50.124;8.582;2023-06-14T07:57:16;5.53;;;3.05;;
20828;SDS011;10575;50.124;8.582;2023-06-14T07:59:41;4.85;;;2.65;;
20828;SDS011;10575;50.124;8.582;2023-06-14T08:02:07;9.02;;;3.22;;
20828;SDS011;10575;50.124;8.582;2023-06-14T08:04:32;5.75;;;2.75;;
20828;SDS011;10575;50.124;8.582;2023-06-14T08:06:59;4.43;;;2.60;;
20828;SDS011;10575;50.124;8.582;2023-06-14T08:09:24;2.72;;;2.30;;
20828;SDS011;10575;50.124;8.582;2023-06-14T08:11:50;2.75;;;2.47;;
20828;SDS011;10575;50.124;8.582;2023-06-14T08:14:16;4.55;;;2.20;;
20828;SDS011;10575;50.124;8.582;2023-06-14T08:16:41;2.53;;;2.33;;
20828;SDS011;10575;50.124;8.582;2023-06-14T08:19:07;3.15;;;2.25;;
20828;SDS011;10575;50.124;8.582;2023-06-14T08:21:32;4.25;;;2.13;;
20828;SDS011;10575;50.124;8.582;2023-06-14T08:23:58;5.43;;;2.10;;
20828;SDS011;10575;50.124;8.582;2023-06-14T08:26:24;4.10;;;2.30;;
20828;SDS011;10575;50.124;8.582;2023-06-14T08:28:53;2.63;;;1.90;;
20828;SDS011;10575;50.124;8.582;2023-06-14T08:31:20;4.55;;;2.42;;
20828;SDS011;10575;50.124;8.582;2023-06-14T08:33:45;3.47;;;2.00;;
20828;SDS011;10575;50.124;8.582;2023-06-14T08:36:11;2.47;;;1.73;;
20828;SDS011;10575;50.124;8.582;2023-06-14T08:38:40;3.90;;;1.90;;
20828;SDS011;10575;50.124;8.582;2023-06-14T08:41:05;3.25;;;1.70;;
20828;SDS011;10575;50.124;8.582;2023-06-14T08:43:32;1.70;;;1.42;;
20828;SDS011;10575;50.124;8.582;2023-06-14T08:45:58;5.05;;;1.85;;
20828;SDS011;10575;50.124;8.582;2023-06-14T08:48:27;2.15;;;1.80;;
20828;SDS011;10575;50.124;8.582;2023-06-14T08:50:54;2.47;;;1.77;;
20828;SDS011;10575;50.124;8.582;2023-06-14T08:53:26;2.20;;;2.00;;
20828;SDS011;10575;50.124;8.582;2023-06-14T08:55:56;4.35;;;2.00;;
20828;SDS011;10575;50.124;8.582;2023-06-14T08:58:26;3.53;;;2.28;;
20828;SDS011;10575;50.124;8.582;2023-06-14T09:00:56;2.08;;;1.90;;
20828;SDS011;10575;50.124;8.582;2023-06-14T09:03:23;2.65;;;2.00;;
20828;SDS011;10575;50.124;8.582;2023-06-14T09:05:55;3.75;;;1.88;;
20828;SDS011;10575;50.124;8.582;2023-06-14T09:08:27;3.33;;;2.03;;
20828;SDS011;10575;50.124;8.582;2023-06-14T09:10:55;3.15;;;1.80;;
20828;SDS011;10575;50.124;8.582;2023-06-14T09:13:21;4.45;;;1.90;;
20828;SDS011;10575;50.124;8.582;2023-06-14T09:15:46;3.47;;;1.83;;
20828;SDS011;10575;50.124;8.582;2023-06-14T09:18:12;3.75;;;1.88;;
20828;SDS011;10575;50.124;8.582;2023-06-14T09:20:37;2.08;;;1.88;;
20828;SDS011;10575;50.124;8.582;2023-06-14T09:23:04;2.53;;;2.08;;
20828;SDS011;10575;50.124;8.582;2023-06-14T09:25:30;2.03;;;1.70;;
20828;SDS011;10575;50.124;8.582;2023-06-14T09:27:56;5.22;;;1.90;;
20828;SDS011;10575;50.124;8.582;2023-06-14T09:30:21;10.07;;;2.45;;
20828;SDS011;10575;50.124;8.582;2023-06-14T09:32:47;4.97;;;1.70;;
20828;SDS011;10575;50.124;8.582;2023-06-14T09:35:12;2.03;;;1.85;;
20828;SDS011;10575;50.124;8.582;2023-06-14T09:37:42;2.22;;;1.90;;
20828;SDS011;10575;50.124;8.582;2023-06-14T09:40:07;5.10;;;2.08;;
20828;SDS011;10575;50.124;8.582;2023-06-14T09:42:33;5.00;;;2.00;;
20828;SDS011;10575;50.124;8.582;2023-06-14T09:45:00;2.50;;;1.70;;
20828;SDS011;10575;50.124;8.582;2023-06-14T09:47:27;3.60;;;2.10;;
20828;SDS011;10575;50.124;8.582;2023-06-14T09:49:53;2.22;;;1.83;;
20828;SDS011;10575;50.124;8.582;2023-06-14T09:52:20;5.15;;;2.20;;
20828;SDS011;10575;50.124;8.582;2023-06-14T09:54:47;1.98;;;1.75;;
20828;SDS011;10575;50.124;8.582;2023-06-14T09:57:15;3.78;;;2.10;;
20828;SDS011;10575;50.124;8.582;2023-06-14T09:59:45;2.58;;;2.38;;
20828;SDS011;10575;50.124;8.582;2023-06-14T10:02:25;2.10;;;1.95;;
20828;SDS011;10575;50.124;8.582;2023-06-14T10:04:58;2.67;;;2.25;;
20828;SDS011;10575;50.124;8.582;2023-06-14T10:07:30;3.95;;;1.85;;
20828;SDS011;10575;50.124;8.582;2023-06-14T10:09:59;2.67;;;2.00;;
20828;SDS011;10575;50.124;8.582;2023-06-14T10:12:26;2.10;;;1.75;;
20828;SDS011;10575;50.124;8.582;2023-06-14T10:14:52;2.95;;;2.00;;
20828;SDS011;10575;50.124;8.582;2023-06-14T10:18:03;3.90;;;2.30;;
20828;SDS011;10575;50.124;8.582;2023-06-14T10:20:33;6.18;;;2.40;;
20828;SDS011;10575;50.124;8.582;2023-06-14T10:25:41;4.97;;;2.30;;
20828;SDS011;10575;50.124;8.582;2023-06-14T10:28:17;3.90;;;2.58;;
20828;SDS011;10575;50.124;8.582;2023-06-14T10:31:07;2.97;;;2.20;;
20828;SDS011;10575;50.124;8.582;2023-06-14T10:33:32;6.93;;;2.15;;
20828;SDS011;10575;50.124;8.582;2023-06-14T10:36:08;6.43;;;2.17;;
20828;SDS011;10575;50.124;8.582;2023-06-14T10:38:43;4.43;;;2.63;;
20828;SDS011;10575;50.124;8.582;2023-06-14T10:41:08;3.30;;;2.28;;
20828;SDS011;10575;50.124;8.582;2023-06-14T10:43:35;4.05;;;2.50;;
20828;SDS011;10575;50.124;8.582;2023-06-14T10:46:16;4.45;;;2.35;;
20828;SDS011;10575;50.124;8.582;2023-06-14T10:48:43;3.95;;;2.30;;
20828;SDS011;10575;50.124;8.582;2023-06-14T10:51:19;6.45;;;2.80;;
20828;SDS011;10575;50.124;8.582;2023-06-14T10:53:46;5.00;;;2.50;;
20828;SDS011;10575;50.124;8.582;2023-06-14T10:56:22;4.85;;;2.70;;
20828;SDS011;10575;50.124;8.582;2023-06-14T10:58:52;2.85;;;2.55;;
20828;SDS011;10575;50.124;8.582;2023-06-14T11:01:29;3.47;;;2.42;;
20828;SDS011;10575;50.124;8.582;2023-06-14T11:04:06;3.03;;;2.53;;
20828;SDS011;10575;50.124;8.582;2023-06-14T11:06:49;5.28;;;2.47;;
20828;SDS011;10575;50.124;8.582;2023-06-14T11:12:04;2.97;;;2.65;;
20828;SDS011;10575;50.124;8.582;2023-06-14T11:14:35;5.97;;;2.85;;
20828;SDS011;10575;50.124;8.582;2023-06-14T11:17:00;2.70;;;2.50;;
20828;SDS011;10575;50.124;8.582;2023-06-14T11:19:26;5.65;;;2.65;;
20828;SDS011;10575;50.124;8.582;2023-06-14T11:21:54;3.88;;;2.38;;
20828;SDS011;10575;50.124;8.582;2023-06-14T11:24:19;5.07;;;2.78;;
20828;SDS011;10575;50.124;8.582;2023-06-14T11:26:46;3.85;;;2.58;;
20828;SDS011;10575;50.124;8.582;2023-06-14T11:29:12;6.20;;;2.45;;
20828;SDS011;10575;50.124;8.582;2023-06-14T11:31:42;7.18;;;2.50;;
20828;SDS011;10575;50.124;8.582;2023-06-14T11:34:10;3.28;;;2.40;;
20828;SDS011;10575;50.124;8.582;2023-06-14T11:36:38;6.93;;;2.70;;
20828;SDS011;10575;50.124;8.582;2023-06-14T11:39:04;4.07;;;2.33;;
20828;SDS011;10575;50.124;8.582;2023-06-14T11:41:44;2.92;;;2.40;;
20828;SDS011;10575;50.124;8.582;2023-06-14T11:44:10;3.83;;;2.47;;
20828;SDS011;10575;50.124;8.582;2023-06-14T11:46:36;5.30;;;2.40;;
20828;SDS011;10575;50.124;8.582;2023-06-14T11:49:02;3.85;;;2.17;;
20828;SDS011;10575;50.124;8.582;2023-06-14T11:51:30;3.28;;;2.33;;
20828;SDS011;10575;50.124;8.582;2023-06-14T11:53:56;6.40;;;2.63;;
20828;SDS011;10575;50.124;8.582;2023-06-14T11:56:23;2.58;;;2.10;;
20828;SDS011;10575;50.124;8.582;2023-06-14T11:58:50;2.45;;;1.90;;
20828;SDS011;10575;50.124;8.582;2023-06-14T12:01:16;5.78;;;3.35;;
20828;SDS011;10575;50.124;8.582;2023-06-14T12:03:50;2.40;;;2.17;;
20828;SDS011;10575;50.124;8.582;2023-06-14T12:06:29;2.30;;;2.10;;
20828;SDS011;10575;50.124;8.582;2023-06-14T12:08:58;4.32;;;2.25;;
20828;SDS011;10575;50.124;8.582;2023-06-14T12:11:24;3.30;;;2.13;;
20828;SDS011;10575;50.124;8.582;2023-06-14T12:13:56;2.75;;;2.05;;
20828;SDS011;10575;50.124;8.582;2023-06-14T12:16:22;6.88;;;2.40;;
20828;SDS011;10575;50.124;8.582;2023-06-14T12:18:56;3.17;;;2.20;;
20828;SDS011;10575;50.124;8.582;2023-06-14T12:21:26;4.93;;;2.25;;
20828;SDS011;10575;50.124;8.582;2023-06-14T12:23:53;2.78;;;2.25;;
20828;SDS011;10575;50.124;8.582;2023-06-14T12:26:19;4.68;;;2.10;;
20828;SDS011;10575;50.124;8.582;2023-06-14T12:28:45;3.97;;;2.15;;
20828;SDS011;10575;50.124;8.582;2023-06-14T12:31:12;9.25;;;2.63;;
20828;SDS011;10575;50.124;8.582;2023-06-14T12:33:39;6.72;;;2.63;;
20828;SDS011;10575;50.124;8.582;2023-06-14T12:36:06;2.95;;;2.63;;
20828;SDS011;10575;50.124;8.582;2023-06-14T12:38:33;2.58;;;2.33;;
20828;SDS011;10575;50.124;8.582;2023-06-14T12:41:00;2.83;;;2.33;;
20828;SDS011;10575;50.124;8.582;2023-06-14T12:43:26;2.72;;;2.47;;
20828;SDS011;10575;50.124;8.582;2023-06-14T12:45:52;5.60;;;2.63;;
20828;SDS011;10575;50.124;8.582;2023-06-14T12:48:18;3.83;;;2.53;;
20828;SDS011;10575;50.124;8.582;2023-06-14T12:50:44;4.28;;;3.15;;
20828;SDS011;10575;50.124;8.582;2023-06-14T12:53:10;4.72;;;3.10;;
20828;SDS011;10575;50.124;8.582;2023-06-14T12:55:35;3.42;;;3.13;;
20828;SDS011;10575;50.124;8.582;2023-06-14T12:58:01;3.15;;;2.63;;
20828;SDS011;10575;50.124;8.582;2023-06-14T13:00:27;3.03;;;2.75;;
20828;SDS011;10575;50.124;8.582;2023-06-14T13:02:54;3.63;;;2.83;;
20828;SDS011;10575;50.124;8.582;2023-06-14T13:05:20;3.50;;;2.60;;
20828;SDS011;10575;50.124;8.582;2023-06-14T13:07:45;3.42;;;2.67;;
20828;SDS011;10575;50.124;8.582;2023-06-14T13:10:11;2.95;;;2.65;;
20828;SDS011;10575;50.124;8.582;2023-06-14T13:12:37;3.72;;;3.22;;
20828;SDS011;10575;50.124;8.582;2023-06-14T13:15:02;5.30;;;2.67;;
20828;SDS011;10575;50.124;8.582;2023-06-14T13:17:28;3.42;;;2.65;;
20828;SDS011;10575;50.124;8.582;2023-06-14T13:19:53;3.85;;;2.67;;
20828;SDS011;10575;50.124;8.582;2023-06-14T13:22:19;3.45;;;2.33;;
20828;SDS011;10575;50.124;8.582;2023-06-14T13:24:45;2.97;;;2.45;;
20828;SDS011;10575;50.124;8.582;2023-06-14T13:27:10;3.35;;;2.47;;
20828;SDS011;10575;50.124;8.582;2023-06-14T13:29:36;4.47;;;3.03;;
20828;SDS011;10575;50.124;8.582;2023-06-14T13:32:02;3.53;;;2.50;;
20828;SDS011;10575;50.124;8.582;2023-06-14T13:34:28;2.53;;;2.33;;
20828;SDS011;10575;50.124;8.582;2023-06-14T13:36:54;4.32;;;2.40;;
20828;SDS011;10575;50.124;8.582;2023-06-14T13:39:20;3.92;;;2.53;;
20828;SDS011;10575;50.124;8.582;2023-06-14T13:41:46;5.72;;;2.90;;
20828;SDS011;10575;50.124;8.582;2023-06-14T13:44:11;2.92;;;2.15;;
20828;SDS011;10575;50.124;8.582;2023-06-14T13:46:39;3.75;;;2.88;;
20828;SDS011;10575;50.124;8.582;2023-06-14T13:49:05;2.70;;;2.47;;
20828;SDS011;10575;50.124;8.582;2023-06-14T13:51:31;3.60;;;2.83;;
20828;SDS011;10575;50.124;8.582;2023-06-14T13:53:58;2.70;;;2.30;;
20828;SDS011;10575;50.124;8.582;2023-06-14T13:56:23;3.40;;;2.67;;
20828;SDS011;10575;50.124;8.582;2023-06-14T13:58:49;2.60;;;2.40;;
20828;SDS011;10575;50.124;8.582;2023-06-14T14:01:15;3.10;;;2.67;;
20828;SDS011;10575;50.124;8.582;2023-06-14T14:03:43;6.88;;;2.58;;
20828;SDS011;10575;50.124;8.582;2023-06-14T14:06:10;6.35;;;2.60;;
20828;SDS011;10575;50.124;8.582;2023-06-14T14:08:35;5.00;;;2.80;;
20828;SDS011;10575;50.124;8.582;2023-06-14T14:11:01;5.32;;;2.60;;
20828;SDS011;10575;50.124;8.582;2023-06-14T14:13:27;3.30;;;2.47;;
20828;SDS011;10575;50.124;8.582;2023-06-14T14:15:52;4.25;;;2.70;;
20828;SDS011;10575;50.124;8.582;2023-06-14T14:18:18;7.10;;;2.63;;
20828;SDS011;10575;50.124;8.582;2023-06-14T14:20:45;2.85;;;2.63;;
20828;SDS011;10575;50.124;8.582;2023-06-14T14:23:11;3.90;;;2.75;;
20828;SDS011;10575;50.124;8.582;2023-06-14T14:25:37;5.50;;;2.47;;
20828;SDS011;10575;50.124;8.582;2023-06-14T14:28:02;5.80;;;2.65;;
20828;SDS011;10575;50.124;8.582;2023-06-14T14:30:28;3.25;;;2.10;;
20828;SDS011;10575;50.124;8.582;2023-06-14T14:32:54;4.93;;;2.65;;
20828;SDS011;10575;50.124;8.582;2023-06-14T14:35:19;3.08;;;2.63;;
20828;SDS011;10575;50.124;8.582;2023-06-14T14:37:45;3.97;;;2.53;;
20828;SDS011;10575;50.124;8.582;2023-06-14T14:40:11;2.53;;;2.33;;
20828;SDS011;10575;50.124;8.582;2023-06-14T14:42:36;2.50;;;2.30;;
20828;SDS011;10575;50.124;8.582;2023-06-14T14:45:02;4.80;;;2.70;;
20828;SDS011;10575;50.124;8.582;2023-06-14T14:47:28;4.55;;;2.55;;
20828;SDS011;10575;50.124;8.582;2023-06-14T14:49:53;4.57;;;2.65;;
20828;SDS011;10575;50.124;8.582;2023-06-14T14:52:19;3.20;;;2.42;;